Fontanelle, Nebraska
Current Conditions -  °F | °C
As of 4:35 PM on Monday 22 Dec 2014 (Local Time) from KFET Reporting Station
Drizzle Drizzle  
Wind Chill: 35°   Ceiling: 1900
Heat Index: 42°   Visibility: 10mi
Dew Point: 40°   Wind: 13mph
Humidity: 93%   Direction: 310°NW
Pressure: 29.43"   Gusts: NA
Location:  41.5221°N, 96.4999°W
Report Text: KFET 222235Z AUTO 31011KT 10SM -DZ BKN019 OVC025 06/05 A2943 RMK AO2 P0001 T00550045
Loading
Personal Weather Stations






























Interactive Weather Map New forecast layout! Learn more

10-Day Weather Forecast

Advertisements
Track Severe Weather on mobile